sensor_id;sensor_type;location;lat;lon;timestamp;temperature;humidity
48876;DHT22;34689;51.644;5.618;2023-02-28T00:01:07;2.30;99.90
48876;DHT22;34689;51.644;5.618;2023-02-28T00:03:32;2.20;99.90
48876;DHT22;34689;51.644;5.618;2023-02-28T00:06:02;2.20;99.90
48876;DHT22;34689;51.644;5.618;2023-02-28T00:08:28;2.20;99.90
48876;DHT22;34689;51.644;5.618;2023-02-28T00:10:54;2.20;99.90
48876;DHT22;34689;51.644;5.618;2023-02-28T00:13:20;2.20;99.90
48876;DHT22;34689;51.644;5.618;2023-02-28T00:15:45;2.10;99.90
48876;DHT22;34689;51.644;5.618;2023-02-28T00:18:11;2.20;99.90
48876;DHT22;34689;51.644;5.618;2023-02-28T00:20:37;2.10;99.90
48876;DHT22;34689;51.644;5.618;2023-02-28T00:23:03;2.10;99.90
48876;DHT22;34689;51.644;5.618;2023-02-28T00:25:28;2.10;99.90
48876;DHT22;34689;51.644;5.618;2023-02-28T00:27:54;2.10;99.90
48876;DHT22;34689;51.644;5.618;2023-02-28T00:30:22;2.00;99.90
48876;DHT22;34689;51.644;5.618;2023-02-28T00:32:49;2.00;99.90
48876;DHT22;34689;51.644;5.618;2023-02-28T00:35:15;2.00;99.90
48876;DHT22;34689;51.644;5.618;2023-02-28T00:37:42;2.10;99.90
48876;DHT22;34689;51.644;5.618;2023-02-28T00:40:09;2.10;99.90
48876;DHT22;34689;51.644;5.618;2023-02-28T00:42:36;2.00;99.90
48876;DHT22;34689;51.644;5.618;2023-02-28T00:45:02;2.00;99.90
48876;DHT22;34689;51.644;5.618;2023-02-28T00:47:30;2.00;99.90
48876;DHT22;34689;51.644;5.618;2023-02-28T00:49:56;2.00;99.90
48876;DHT22;34689;51.644;5.618;2023-02-28T00:52:21;2.00;99.90
48876;DHT22;34689;51.644;5.618;2023-02-28T00:54:47;2.00;99.90
48876;DHT22;34689;51.644;5.618;2023-02-28T00:57:13;2.00;99.90
48876;DHT22;34689;51.644;5.618;2023-02-28T00:59:38;1.90;99.90
48876;DHT22;34689;51.644;5.618;2023-02-28T01:02:04;2.00;99.90
48876;DHT22;34689;51.644;5.618;2023-02-28T01:04:30;2.00;99.90
48876;DHT22;34689;51.644;5.618;2023-02-28T01:06:55;1.90;99.90
48876;DHT22;34689;51.644;5.618;2023-02-28T01:09:21;1.90;99.90
48876;DHT22;34689;51.644;5.618;2023-02-28T01:11:47;1.90;99.90
48876;DHT22;34689;51.644;5.618;2023-02-28T01:14:14;1.90;99.90
48876;DHT22;34689;51.644;5.618;2023-02-28T01:16:40;1.80;99.90
48876;DHT22;34689;51.644;5.618;2023-02-28T01:19:06;1.80;99.90
48876;DHT22;34689;51.644;5.618;2023-02-28T01:21:32;1.80;99.90
48876;DHT22;34689;51.644;5.618;2023-02-28T01:23:58;1.80;99.90
48876;DHT22;34689;51.644;5.618;2023-02-28T01:26:24;1.80;99.90
48876;DHT22;34689;51.644;5.618;2023-02-28T01:28:51;1.80;99.90
48876;DHT22;34689;51.644;5.618;2023-02-28T01:31:18;1.70;99.90
48876;DHT22;34689;51.644;5.618;2023-02-28T01:33:44;1.70;99.90
48876;DHT22;34689;51.644;5.618;2023-02-28T01:36:14;1.70;99.90
48876;DHT22;34689;51.644;5.618;2023-02-28T01:38:40;1.70;99.90
48876;DHT22;34689;51.644;5.618;2023-02-28T01:41:07;1.70;99.90
48876;DHT22;34689;51.644;5.618;2023-02-28T01:43:58;1.70;99.90
48876;DHT22;34689;51.644;5.618;2023-02-28T01:46:24;1.70;99.90
48876;DHT22;34689;51.644;5.618;2023-02-28T01:49:00;1.60;99.90
48876;DHT22;34689;51.644;5.618;2023-02-28T01:51:29;1.60;99.90
48876;DHT22;34689;51.644;5.618;2023-02-28T01:53:59;1.60;99.90
48876;DHT22;34689;51.644;5.618;2023-02-28T01:56:30;1.60;99.90
48876;DHT22;34689;51.644;5.618;2023-02-28T01:58:59;1.60;99.90
48876;DHT22;34689;51.644;5.618;2023-02-28T02:01:26;1.50;99.90
48876;DHT22;34689;51.644;5.618;2023-02-28T02:03:56;1.50;99.90
48876;DHT22;34689;51.644;5.618;2023-02-28T02:06:40;1.50;99.90
48876;DHT22;34689;51.644;5.618;2023-02-28T02:09:07;1.60;99.90
48876;DHT22;34689;51.644;5.618;2023-02-28T02:11:34;1.60;99.90
48876;DHT22;34689;51.644;5.618;2023-02-28T02:16:45;1.60;99.90
48876;DHT22;34689;51.644;5.618;2023-02-28T02:24:54;1.60;99.90
48876;DHT22;34689;51.644;5.618;2023-02-28T02:30:21;1.70;99.90
48876;DHT22;34689;51.644;5.618;2023-02-28T02:36:05;1.90;99.90
48876;DHT22;34689;51.644;5.618;2023-02-28T02:41:08;1.90;99.90
48876;DHT22;34689;51.644;5.618;2023-02-28T02:43:51;2.00;99.90
48876;DHT22;34689;51.644;5.618;2023-02-28T02:46:28;2.00;99.90
48876;DHT22;34689;51.644;5.618;2023-02-28T02:48:56;2.10;99.90
48876;DHT22;34689;51.644;5.618;2023-02-28T02:51:24;2.10;99.90
48876;DHT22;34689;51.644;5.618;2023-02-28T02:53:57;2.10;99.90
48876;DHT22;34689;51.644;5.618;2023-02-28T02:56:27;2.10;99.90
48876;DHT22;34689;51.644;5.618;2023-02-28T02:58:58;2.10;99.90
48876;DHT22;34689;51.644;5.618;2023-02-28T03:01:29;2.20;99.90
48876;DHT22;34689;51.644;5.618;2023-02-28T03:04:01;2.20;99.90
48876;DHT22;34689;51.644;5.618;2023-02-28T03:06:28;2.20;99.90
48876;DHT22;34689;51.644;5.618;2023-02-28T03:08:54;2.20;99.90
48876;DHT22;34689;51.644;5.618;2023-02-28T03:11:19;2.20;99.90
48876;DHT22;34689;51.644;5.618;2023-02-28T03:19:21;2.30;99.90
48876;DHT22;34689;51.644;5.618;2023-02-28T03:27:45;2.40;99.90
48876;DHT22;34689;51.644;5.618;2023-02-28T03:30:27;2.40;99.90
48876;DHT22;34689;51.644;5.618;2023-02-28T03:32:58;2.40;99.90
48876;DHT22;34689;51.644;5.618;2023-02-28T03:35:36;2.40;99.90
48876;DHT22;34689;51.644;5.618;2023-02-28T03:38:34;2.40;99.90
48876;DHT22;34689;51.644;5.618;2023-02-28T03:43:42;2.40;99.90
48876;DHT22;34689;51.644;5.618;2023-02-28T03:46:11;2.40;99.90
48876;DHT22;34689;51.644;5.618;2023-02-28T03:48:45;2.40;99.90
48876;DHT22;34689;51.644;5.618;2023-02-28T03:51:17;2.40;99.90
48876;DHT22;34689;51.644;5.618;2023-02-28T03:53:50;2.40;99.90
48876;DHT22;34689;51.644;5.618;2023-02-28T03:56:22;2.50;99.90
48876;DHT22;34689;51.644;5.618;2023-02-28T03:59:22;2.50;99.90
48876;DHT22;34689;51.644;5.618;2023-02-28T04:01:50;2.50;99.90
48876;DHT22;34689;51.644;5.618;2023-02-28T04:04:17;2.50;99.90
48876;DHT22;34689;51.644;5.618;2023-02-28T04:06:44;2.50;99.90
48876;DHT22;34689;51.644;5.618;2023-02-28T04:09:12;2.50;99.90
48876;DHT22;34689;51.644;5.618;2023-02-28T04:11:41;2.60;99.90
48876;DHT22;34689;51.644;5.618;2023-02-28T04:14:09;2.60;99.90
48876;DHT22;34689;51.644;5.618;2023-02-28T04:16:37;2.50;99.90
48876;DHT22;34689;51.644;5.618;2023-02-28T04:19:05;2.60;99.90
48876;DHT22;34689;51.644;5.618;2023-02-28T04:21:40;2.60;99.90
48876;DHT22;34689;51.644;5.618;2023-02-28T04:24:07;2.60;99.90
48876;DHT22;34689;51.644;5.618;2023-02-28T04:26:35;2.60;99.90
48876;DHT22;34689;51.644;5.618;2023-02-28T04:29:03;2.60;99.90
48876;DHT22;34689;51.644;5.618;2023-02-28T04:31:29;2.60;99.90
48876;DHT22;34689;51.644;5.618;2023-02-28T04:33:54;2.60;99.90
48876;DHT22;34689;51.644;5.618;2023-02-28T04:36:20;2.60;99.90
48876;DHT22;34689;51.644;5.618;2023-02-28T04:38:48;2.60;99.90
48876;DHT22;34689;51.644;5.618;2023-02-28T04:41:14;2.60;99.90
48876;DHT22;34689;51.644;5.618;2023-02-28T04:43:40;2.60;99.90
48876;DHT22;34689;51.644;5.618;2023-02-28T04:46:06;2.60;99.90
48876;DHT22;34689;51.644;5.618;2023-02-28T04:48:35;2.60;99.90
48876;DHT22;34689;51.644;5.618;2023-02-28T04:51:13;2.60;99.90
48876;DHT22;34689;51.644;5.618;2023-02-28T04:53:40;2.60;99.90
48876;DHT22;34689;51.644;5.618;2023-02-28T04:56:07;2.60;99.90
48876;DHT22;34689;51.644;5.618;2023-02-28T04:58:33;2.60;99.90
48876;DHT22;34689;51.644;5.618;2023-02-28T05:01:14;2.60;99.90
48876;DHT22;34689;51.644;5.618;2023-02-28T05:03:42;2.60;99.90
48876;DHT22;34689;51.644;5.618;2023-02-28T05:06:08;2.50;99.90
48876;DHT22;34689;51.644;5.618;2023-02-28T05:08:34;2.50;99.90
48876;DHT22;34689;51.644;5.618;2023-02-28T05:11:01;2.50;99.90
48876;DHT22;34689;51.644;5.618;2023-02-28T05:13:27;2.60;99.90
48876;DHT22;34689;51.644;5.618;2023-02-28T05:15:53;2.50;99.90
48876;DHT22;34689;51.644;5.618;2023-02-28T05:18:19;2.60;99.90
48876;DHT22;34689;51.644;5.618;2023-02-28T05:20:45;2.50;99.90
48876;DHT22;34689;51.644;5.618;2023-02-28T05:23:22;2.50;99.90
48876;DHT22;34689;51.644;5.618;2023-02-28T05:25:48;2.50;99.90
48876;DHT22;34689;51.644;5.618;2023-02-28T05:28:14;2.50;99.90
48876;DHT22;34689;51.644;5.618;2023-02-28T05:30:40;2.50;99.90
48876;DHT22;34689;51.644;5.618;2023-02-28T05:33:05;2.50;99.90
48876;DHT22;34689;51.644;5.618;2023-02-28T05:35:31;2.50;99.90
48876;DHT22;34689;51.644;5.618;2023-02-28T05:37:57;2.50;99.90
48876;DHT22;34689;51.644;5.618;2023-02-28T05:40:23;2.50;99.90
48876;DHT22;34689;51.644;5.618;2023-02-28T05:42:50;2.50;99.90
48876;DHT22;34689;51.644;5.618;2023-02-28T05:45:16;2.50;99.90
48876;DHT22;34689;51.644;5.618;2023-02-28T05:47:42;2.40;99.90
48876;DHT22;34689;51.644;5.618;2023-02-28T05:50:08;2.40;99.90
48876;DHT22;34689;51.644;5.618;2023-02-28T05:52:36;2.40;99.90
48876;DHT22;34689;51.644;5.618;2023-02-28T05:55:02;2.40;99.90
48876;DHT22;34689;51.644;5.618;2023-02-28T05:57:28;2.40;99.90
48876;DHT22;34689;51.644;5.618;2023-02-28T05:59:53;2.40;99.90
48876;DHT22;34689;51.644;5.618;2023-02-28T06:02:19;2.50;99.90
48876;DHT22;34689;51.644;5.618;2023-02-28T06:04:45;2.40;99.90
48876;DHT22;34689;51.644;5.618;2023-02-28T06:07:11;2.50;99.90
48876;DHT22;34689;51.644;5.618;2023-02-28T06:09:37;2.50;99.90
48876;DHT22;34689;51.644;5.618;2023-02-28T06:12:05;2.50;99.90
48876;DHT22;34689;51.644;5.618;2023-02-28T06:14:33;2.50;99.90
48876;DHT22;34689;51.644;5.618;2023-02-28T06:17:00;2.40;99.90
48876;DHT22;34689;51.644;5.618;2023-02-28T06:19:25;2.50;99.90
48876;DHT22;34689;51.644;5.618;2023-02-28T06:21:53;2.50;99.90
48876;DHT22;34689;51.644;5.618;2023-02-28T06:24:23;2.50;99.90
48876;DHT22;34689;51.644;5.618;2023-02-28T06:26:50;2.50;99.90
48876;DHT22;34689;51.644;5.618;2023-02-28T06:29:16;2.50;99.90
48876;DHT22;34689;51.644;5.618;2023-02-28T06:31:44;2.40;99.90
48876;DHT22;34689;51.644;5.618;2023-02-28T06:34:11;2.40;99.90
48876;DHT22;34689;51.644;5.618;2023-02-28T06:36:40;2.40;99.90
48876;DHT22;34689;51.644;5.618;2023-02-28T06:39:07;2.40;99.90
48876;DHT22;34689;51.644;5.618;2023-02-28T06:41:33;2.40;99.90
48876;DHT22;34689;51.644;5.618;2023-02-28T06:44:13;2.40;99.90
48876;DHT22;34689;51.644;5.618;2023-02-28T06:46:41;2.40;99.90
48876;DHT22;34689;51.644;5.618;2023-02-28T06:49:07;2.40;99.90
48876;DHT22;34689;51.644;5.618;2023-02-28T06:51:39;2.40;99.90
48876;DHT22;34689;51.644;5.618;2023-02-28T06:54:05;2.40;99.90
48876;DHT22;34689;51.644;5.618;2023-02-28T06:56:54;2.40;99.90
48876;DHT22;34689;51.644;5.618;2023-02-28T06:59:20;2.40;99.90
48876;DHT22;34689;51.644;5.618;2023-02-28T07:01:46;2.40;99.90
48876;DHT22;34689;51.644;5.618;2023-02-28T07:04:11;2.30;99.90
48876;DHT22;34689;51.644;5.618;2023-02-28T07:06:38;2.40;99.90
48876;DHT22;34689;51.644;5.618;2023-02-28T07:09:04;2.40;99.90
48876;DHT22;34689;51.644;5.618;2023-02-28T07:11:31;2.40;99.90
48876;DHT22;34689;51.644;5.618;2023-02-28T07:13:57;2.40;99.90
48876;DHT22;34689;51.644;5.618;2023-02-28T07:16:24;2.30;99.90
48876;DHT22;34689;51.644;5.618;2023-02-28T07:18:52;2.40;99.90
48876;DHT22;34689;51.644;5.618;2023-02-28T07:21:18;2.40;99.90
48876;DHT22;34689;51.644;5.618;2023-02-28T07:23:44;2.40;99.90
48876;DHT22;34689;51.644;5.618;2023-02-28T07:26:15;2.40;99.90
48876;DHT22;34689;51.644;5.618;2023-02-28T07:28:42;2.40;99.90
48876;DHT22;34689;51.644;5.618;2023-02-28T07:31:08;2.50;99.90
48876;DHT22;34689;51.644;5.618;2023-02-28T07:33:34;2.50;99.90
48876;DHT22;34689;51.644;5.618;2023-02-28T07:36:05;2.60;99.90
48876;DHT22;34689;51.644;5.618;2023-02-28T07:38:34;2.60;99.90
48876;DHT22;34689;51.644;5.618;2023-02-28T07:41:00;2.70;99.90
48876;DHT22;34689;51.644;5.618;2023-02-28T07:43:30;2.70;99.90
48876;DHT22;34689;51.644;5.618;2023-02-28T07:46:01;2.70;99.90
48876;DHT22;34689;51.644;5.618;2023-02-28T07:48:27;2.80;99.90
48876;DHT22;34689;51.644;5.618;2023-02-28T07:50:56;2.80;99.90
48876;DHT22;34689;51.644;5.618;2023-02-28T07:53:22;2.90;99.90
48876;DHT22;34689;51.644;5.618;2023-02-28T07:55:48;3.00;99.90
48876;DHT22;34689;51.644;5.618;2023-02-28T07:58:13;3.00;99.90
48876;DHT22;34689;51.644;5.618;2023-02-28T08:00:39;3.10;99.90
48876;DHT22;34689;51.644;5.618;2023-02-28T08:03:04;3.20;99.90
48876;DHT22;34689;51.644;5.618;2023-02-28T08:05:30;3.20;99.90
48876;DHT22;34689;51.644;5.618;2023-02-28T08:07:56;3.20;99.90
48876;DHT22;34689;51.644;5.618;2023-02-28T08:10:22;3.20;99.90
48876;DHT22;34689;51.644;5.618;2023-02-28T08:12:49;3.30;99.90
48876;DHT22;34689;51.644;5.618;2023-02-28T08:15:14;3.30;99.90
48876;DHT22;34689;51.644;5.618;2023-02-28T08:17:40;3.30;99.90
48876;DHT22;34689;51.644;5.618;2023-02-28T08:20:08;3.30;99.90
48876;DHT22;34689;51.644;5.618;2023-02-28T08:22:35;3.30;99.90
48876;DHT22;34689;51.644;5.618;2023-02-28T08:25:01;3.30;99.90
48876;DHT22;34689;51.644;5.618;2023-02-28T08:27:27;3.30;99.90
48876;DHT22;34689;51.644;5.618;2023-02-28T08:29:52;3.30;99.90
48876;DHT22;34689;51.644;5.618;2023-02-28T08:32:18;3.30;99.90
48876;DHT22;34689;51.644;5.618;2023-02-28T08:34:44;3.30;99.90
48876;DHT22;34689;51.644;5.618;2023-02-28T08:37:09;3.30;99.90
48876;DHT22;34689;51.644;5.618;2023-02-28T08:39:37;3.30;99.90
48876;DHT22;34689;51.644;5.618;2023-02-28T08:42:04;3.40;99.90
48876;DHT22;34689;51.644;5.618;2023-02-28T08:44:29;3.40;99.90
48876;DHT22;34689;51.644;5.618;2023-02-28T08:46:55;3.40;99.90
48876;DHT22;34689;51.644;5.618;2023-02-28T08:49:21;3.50;99.90
48876;DHT22;34689;51.644;5.618;2023-02-28T08:51:46;3.50;99.90
48876;DHT22;34689;51.644;5.618;2023-02-28T08:54:12;3.60;99.90
48876;DHT22;34689;51.644;5.618;2023-02-28T08:56:38;3.60;99.90
48876;DHT22;34689;51.644;5.618;2023-02-28T08:59:04;3.60;99.90
48876;DHT22;34689;51.644;5.618;2023-02-28T09:01:30;3.70;99.90
48876;DHT22;34689;51.644;5.618;2023-02-28T09:03:57;3.70;99.90
48876;DHT22;34689;51.644;5.618;2023-02-28T09:06:24;3.80;99.90
48876;DHT22;34689;51.644;5.618;2023-02-28T09:08:51;3.90;99.90
48876;DHT22;34689;51.644;5.618;2023-02-28T09:11:36;3.90;99.90
48876;DHT22;34689;51.644;5.618;2023-02-28T09:14:03;3.90;99.90
48876;DHT22;34689;51.644;5.618;2023-02-28T09:16:30;4.00;99.90
48876;DHT22;34689;51.644;5.618;2023-02-28T09:18:56;4.00;99.90
48876;DHT22;34689;51.644;5.618;2023-02-28T09:21:23;4.10;99.90
48876;DHT22;34689;51.644;5.618;2023-02-28T09:23:50;4.20;99.70
48876;DHT22;34689;51.644;5.618;2023-02-28T09:26:17;4.20;99.70
48876;DHT22;34689;51.644;5.618;2023-02-28T09:28:43;4.30;99.00
48876;DHT22;34689;51.644;5.618;2023-02-28T09:31:18;4.40;98.30
48876;DHT22;34689;51.644;5.618;2023-02-28T09:33:51;4.50;99.10
48876;DHT22;34689;51.644;5.618;2023-02-28T09:36:18;4.50;98.60
48876;DHT22;34689;51.644;5.618;2023-02-28T09:38:44;4.60;98.30
48876;DHT22;34689;51.644;5.618;2023-02-28T09:41:20;4.60;97.60
48876;DHT22;34689;51.644;5.618;2023-02-28T09:43:50;4.70;97.90
48876;DHT22;34689;51.644;5.618;2023-02-28T09:48:57;4.90;97.50
48876;DHT22;34689;51.644;5.618;2023-02-28T09:53:59;5.90;96.50
48876;DHT22;34689;51.644;5.618;2023-02-28T09:56:31;8.40;89.90
48876;DHT22;34689;51.644;5.618;2023-02-28T09:59:02;11.70;78.30
48876;DHT22;34689;51.644;5.618;2023-02-28T10:04:50;17.00;60.10
48876;DHT22;34689;51.644;5.618;2023-02-28T10:10:13;19.60;46.70
48876;DHT22;34689;51.644;5.618;2023-02-28T10:12:45;20.80;50.80
48876;DHT22;34689;51.644;5.618;2023-02-28T10:15:16;21.40;48.70
48876;DHT22;34689;51.644;5.618;2023-02-28T10:17:45;21.60;49.00
48876;DHT22;34689;51.644;5.618;2023-02-28T10:20:17;21.80;48.90
48876;DHT22;34689;51.644;5.618;2023-02-28T10:23:00;22.10;48.10
48876;DHT22;34689;51.644;5.618;2023-02-28T10:25:35;22.20;47.90
48876;DHT22;34689;51.644;5.618;2023-02-28T10:28:16;22.20;45.70
48876;DHT22;34689;51.644;5.618;2023-02-28T10:30:51;21.10;43.90
48876;DHT22;34689;51.644;5.618;2023-02-28T10:35:51;18.60;47.90
48876;DHT22;34689;51.644;5.618;2023-02-28T10:38:26;17.60;50.90
48876;DHT22;34689;51.644;5.618;2023-02-28T10:43:31;15.40;58.00
48876;DHT22;34689;51.644;5.618;2023-02-28T10:51:04;13.80;59.00
48876;DHT22;34689;51.644;5.618;2023-02-28T10:53:33;13.30;59.00
48876;DHT22;34689;51.644;5.618;2023-02-28T11:01:37;12.60;59.90
48876;DHT22;34689;51.644;5.618;2023-02-28T11:06:44;12.30;60.90
48876;DHT22;34689;51.644;5.618;2023-02-28T11:09:24;12.10;60.70
48876;DHT22;34689;51.644;5.618;2023-02-28T11:11:55;11.90;61.40
48876;DHT22;34689;51.644;5.618;2023-02-28T11:14:51;11.70;60.00
48876;DHT22;34689;51.644;5.618;2023-02-28T11:17:24;11.50;61.20
48876;DHT22;34689;51.644;5.618;2023-02-28T11:19:54;11.40;61.50
48876;DHT22;34689;51.644;5.618;2023-02-28T11:22:32;11.30;62.30
48876;DHT22;34689;51.644;5.618;2023-02-28T11:25:01;11.10;62.60
48876;DHT22;34689;51.644;5.618;2023-02-28T11:29:58;10.90;62.50
48876;DHT22;34689;51.644;5.618;2023-02-28T11:32:29;10.80;62.90
48876;DHT22;34689;51.644;5.618;2023-02-28T11:37:38;10.70;62.70
48876;DHT22;34689;51.644;5.618;2023-02-28T11:54:03;10.10;64.00
48876;DHT22;34689;51.644;5.618;2023-02-28T11:56:38;10.00;64.20
48876;DHT22;34689;51.644;5.618;2023-02-28T12:07:21;10.10;64.40
48876;DHT22;34689;51.644;5.618;2023-02-28T12:09:59;10.10;63.20
48876;DHT22;34689;51.644;5.618;2023-02-28T12:18:27;10.00;64.00
48876;DHT22;34689;51.644;5.618;2023-02-28T12:21:15;9.90;63.30
48876;DHT22;34689;51.644;5.618;2023-02-28T12:26:44;9.90;63.80
48876;DHT22;34689;51.644;5.618;2023-02-28T12:34:57;9.70;64.50
48876;DHT22;34689;51.644;5.618;2023-02-28T12:40:28;9.70;64.40
48876;DHT22;34689;51.644;5.618;2023-02-28T12:43:04;9.80;65.30
48876;DHT22;34689;51.644;5.618;2023-02-28T12:48:27;9.80;65.10
48876;DHT22;34689;51.644;5.618;2023-02-28T12:50:55;9.80;63.60
48876;DHT22;34689;51.644;5.618;2023-02-28T12:56:24;9.70;64.20
48876;DHT22;34689;51.644;5.618;2023-02-28T12:58:58;9.70;65.10
48876;DHT22;34689;51.644;5.618;2023-02-28T13:09:38;9.80;64.80
48876;DHT22;34689;51.644;5.618;2023-02-28T13:12:13;9.80;64.50
48876;DHT22;34689;51.644;5.618;2023-02-28T13:14:39;9.80;65.50
48876;DHT22;34689;51.644;5.618;2023-02-28T13:19:57;9.70;65.00
48876;DHT22;34689;51.644;5.618;2023-02-28T13:22:39;9.70;66.00
48876;DHT22;34689;51.644;5.618;2023-02-28T13:27:52;9.80;64.40
48876;DHT22;34689;51.644;5.618;2023-02-28T13:33:35;9.80;65.70
48876;DHT22;34689;51.644;5.618;2023-02-28T13:46:27;10.00;64.80
48876;DHT22;34689;51.644;5.618;2023-02-28T13:48:53;10.00;64.40
48876;DHT22;34689;51.644;5.618;2023-02-28T13:51:47;9.90;64.20
48876;DHT22;34689;51.644;5.618;2023-02-28T14:05:27;10.10;63.50
48876;DHT22;34689;51.644;5.618;2023-02-28T14:08:03;10.10;64.00
48876;DHT22;34689;51.644;5.618;2023-02-28T14:10:33;10.10;63.90
48876;DHT22;34689;51.644;5.618;2023-02-28T14:20:48;10.20;64.40
48876;DHT22;34689;51.644;5.618;2023-02-28T14:23:21;10.30;63.30
48876;DHT22;34689;51.644;5.618;2023-02-28T14:31:52;10.50;63.70
48876;DHT22;34689;51.644;5.618;2023-02-28T14:36:59;10.60;63.90
48876;DHT22;34689;51.644;5.618;2023-02-28T14:39:26;10.70;63.50
48876;DHT22;34689;51.644;5.618;2023-02-28T14:41:53;10.70;63.60
48876;DHT22;34689;51.644;5.618;2023-02-28T14:44:24;10.70;63.10
48876;DHT22;34689;51.644;5.618;2023-02-28T14:47:00;10.70;63.40
48876;DHT22;34689;51.644;5.618;2023-02-28T14:49:37;10.80;63.30
48876;DHT22;34689;51.644;5.618;2023-02-28T14:54:41;10.80;63.20
48876;DHT22;34689;51.644;5.618;2023-02-28T14:57:30;10.90;63.20
48876;DHT22;34689;51.644;5.618;2023-02-28T15:02:37;11.00;63.40
48876;DHT22;34689;51.644;5.618;2023-02-28T15:07:38;10.90;63.10
48876;DHT22;34689;51.644;5.618;2023-02-28T15:12:39;10.90;63.50
48876;DHT22;34689;51.644;5.618;2023-02-28T15:15:06;11.00;63.40
48876;DHT22;34689;51.644;5.618;2023-02-28T15:17:34;11.00;63.10
48876;DHT22;34689;51.644;5.618;2023-02-28T15:20:00;11.10;63.10
48876;DHT22;34689;51.644;5.618;2023-02-28T15:22:35;11.10;62.90
48876;DHT22;34689;51.644;5.618;2023-02-28T15:25:02;11.00;63.50
48876;DHT22;34689;51.644;5.618;2023-02-28T15:27:32;10.90;63.80
48876;DHT22;34689;51.644;5.618;2023-02-28T15:30:05;10.70;64.40
48876;DHT22;34689;51.644;5.618;2023-02-28T15:32:35;10.50;65.00
48876;DHT22;34689;51.644;5.618;2023-02-28T15:35:19;10.30;65.00
48876;DHT22;34689;51.644;5.618;2023-02-28T15:37:52;10.10;63.00
48876;DHT22;34689;51.644;5.618;2023-02-28T15:40:41;10.00;65.70
48876;DHT22;34689;51.644;5.618;2023-02-28T15:50:44;9.40;62.80
48876;DHT22;34689;51.644;5.618;2023-02-28T15:53:15;9.30;66.00
48876;DHT22;34689;51.644;5.618;2023-02-28T15:55:41;9.20;66.10
48876;DHT22;34689;51.644;5.618;2023-02-28T15:58:09;9.10;66.30
48876;DHT22;34689;51.644;5.618;2023-02-28T16:00:39;8.90;66.80
48876;DHT22;34689;51.644;5.618;2023-02-28T16:03:24;8.90;67.00
48876;DHT22;34689;51.644;5.618;2023-02-28T16:06:09;8.80;67.20
48876;DHT22;34689;51.644;5.618;2023-02-28T16:08:35;8.70;67.20
48876;DHT22;34689;51.644;5.618;2023-02-28T16:11:00;8.70;66.40
48876;DHT22;34689;51.644;5.618;2023-02-28T16:13:26;8.60;66.90
48876;DHT22;34689;51.644;5.618;2023-02-28T16:15:52;8.60;67.20
48876;DHT22;34689;51.644;5.618;2023-02-28T16:18:19;8.60;67.30
48876;DHT22;34689;51.644;5.618;2023-02-28T16:20:45;8.50;67.50
48876;DHT22;34689;51.644;5.618;2023-02-28T16:23:11;8.50;67.60
48876;DHT22;34689;51.644;5.618;2023-02-28T16:25:41;8.50;67.60
48876;DHT22;34689;51.644;5.618;2023-02-28T16:28:40;8.40;67.70
48876;DHT22;34689;51.644;5.618;2023-02-28T16:31:06;8.30;68.00
48876;DHT22;34689;51.644;5.618;2023-02-28T16:33:33;8.30;67.60
48876;DHT22;34689;51.644;5.618;2023-02-28T16:36:01;8.20;67.70
48876;DHT22;34689;51.644;5.618;2023-02-28T16:38:27;8.20;67.90
48876;DHT22;34689;51.644;5.618;2023-02-28T16:40:55;8.20;68.20
48876;DHT22;34689;51.644;5.618;2023-02-28T16:43:25;8.10;68.10
48876;DHT22;34689;51.644;5.618;2023-02-28T16:45:55;8.00;68.20
48876;DHT22;34689;51.644;5.618;2023-02-28T16:48:22;8.00;68.50
48876;DHT22;34689;51.644;5.618;2023-02-28T16:50:48;7.90;68.40
48876;DHT22;34689;51.644;5.618;2023-02-28T16:53:13;7.90;68.60
48876;DHT22;34689;51.644;5.618;2023-02-28T16:55:39;7.90;68.50
48876;DHT22;34689;51.644;5.618;2023-02-28T16:58:05;7.80;68.30
48876;DHT22;34689;51.644;5.618;2023-02-28T17:00:32;7.80;68.80
48876;DHT22;34689;51.644;5.618;2023-02-28T17:02:58;7.80;69.10
48876;DHT22;34689;51.644;5.618;2023-02-28T17:05:25;7.70;69.70
48876;DHT22;34689;51.644;5.618;2023-02-28T17:07:51;7.70;69.40
48876;DHT22;34689;51.644;5.618;2023-02-28T17:10:18;7.70;69.50
48876;DHT22;34689;51.644;5.618;2023-02-28T17:12:44;7.60;69.50
48876;DHT22;34689;51.644;5.618;2023-02-28T17:15:14;7.60;69.60
48876;DHT22;34689;51.644;5.618;2023-02-28T17:17:41;7.60;70.00
48876;DHT22;34689;51.644;5.618;2023-02-28T17:20:20;7.50;70.10
48876;DHT22;34689;51.644;5.618;2023-02-28T17:22:48;7.40;70.50
48876;DHT22;34689;51.644;5.618;2023-02-28T17:25:14;7.40;70.40
48876;DHT22;34689;51.644;5.618;2023-02-28T17:27:40;7.30;70.40
48876;DHT22;34689;51.644;5.618;2023-02-28T17:30:15;7.30;70.70
48876;DHT22;34689;51.644;5.618;2023-02-28T17:32:41;7.30;71.00
48876;DHT22;34689;51.644;5.618;2023-02-28T17:35:07;7.20;71.00
48876;DHT22;34689;51.644;5.618;2023-02-28T17:37:34;7.20;71.10
48876;DHT22;34689;51.644;5.618;2023-02-28T17:39:59;7.10;71.50
48876;DHT22;34689;51.644;5.618;2023-02-28T17:42:25;7.00;71.60
48876;DHT22;34689;51.644;5.618;2023-02-28T17:44:51;7.00;71.80
48876;DHT22;34689;51.644;5.618;2023-02-28T17:47:16;6.90;71.90
48876;DHT22;34689;51.644;5.618;2023-02-28T17:49:43;6.90;71.90
48876;DHT22;34689;51.644;5.618;2023-02-28T17:52:09;6.80;71.90
48876;DHT22;34689;51.644;5.618;2023-02-28T17:54:34;6.80;72.10
48876;DHT22;34689;51.644;5.618;2023-02-28T17:57:00;6.70;72.20
48876;DHT22;34689;51.644;5.618;2023-02-28T17:59:26;6.70;72.40
48876;DHT22;34689;51.644;5.618;2023-02-28T18:02:01;6.60;72.50
48876;DHT22;34689;51.644;5.618;2023-02-28T18:04:27;6.60;72.70
48876;DHT22;34689;51.644;5.618;2023-02-28T18:06:53;6.50;72.80
48876;DHT22;34689;51.644;5.618;2023-02-28T18:09:22;6.40;73.10
48876;DHT22;34689;51.644;5.618;2023-02-28T18:11:49;6.30;73.30
48876;DHT22;34689;51.644;5.618;2023-02-28T18:14:17;6.30;73.40
48876;DHT22;34689;51.644;5.618;2023-02-28T18:16:43;6.20;73.40
48876;DHT22;34689;51.644;5.618;2023-02-28T18:19:10;6.20;73.50
48876;DHT22;34689;51.644;5.618;2023-02-28T18:21:44;6.10;73.70
48876;DHT22;34689;51.644;5.618;2023-02-28T18:24:10;6.00;74.10
48876;DHT22;34689;51.644;5.618;2023-02-28T18:26:37;5.90;74.20
48876;DHT22;34689;51.644;5.618;2023-02-28T18:29:04;5.80;74.40
48876;DHT22;34689;51.644;5.618;2023-02-28T18:31:30;5.80;74.50
48876;DHT22;34689;51.644;5.618;2023-02-28T18:33:57;5.70;74.60
48876;DHT22;34689;51.644;5.618;2023-02-28T18:36:24;5.70;74.80
48876;DHT22;34689;51.644;5.618;2023-02-28T18:38:50;5.60;74.90
48876;DHT22;34689;51.644;5.618;2023-02-28T18:41:18;5.50;75.00
48876;DHT22;34689;51.644;5.618;2023-02-28T18:43:48;5.50;75.20
48876;DHT22;34689;51.644;5.618;2023-02-28T18:46:17;5.40;75.30
48876;DHT22;34689;51.644;5.618;2023-02-28T18:48:43;5.40;75.40
48876;DHT22;34689;51.644;5.618;2023-02-28T18:51:20;5.30;75.50
48876;DHT22;34689;51.644;5.618;2023-02-28T18:53:47;5.30;75.70
48876;DHT22;34689;51.644;5.618;2023-02-28T18:56:15;5.20;75.70
48876;DHT22;34689;51.644;5.618;2023-02-28T18:58:41;5.10;75.90